createdAt,value
2019-04-20T00:00:06.217Z,51.40
2019-04-20T00:02:51.121Z,51.00
2019-04-20T00:05:27.780Z,51.40
2019-04-20T00:08:16.709Z,51.20
2019-04-20T00:11:01.504Z,52.10
2019-04-20T00:13:45.342Z,51.50
2019-04-20T00:16:18.804Z,51.40
2019-04-20T00:19:03.262Z,51.10
2019-04-20T00:25:03.514Z,50.90
2019-04-20T00:28:16.267Z,51.00
2019-04-20T00:30:58.686Z,50.90
2019-04-20T00:33:37.315Z,50.50
2019-04-20T00:36:07.216Z,50.90
2019-04-20T00:38:53.690Z,50.80
2019-04-20T00:41:34.275Z,51.40
2019-04-20T00:44:22.023Z,51.00
2019-04-20T00:47:09.843Z,50.90
2019-04-20T00:49:55.051Z,51.70
2019-04-20T00:52:32.824Z,51.90
2019-04-20T00:55:06.351Z,52.70
2019-04-20T00:57:54.877Z,52.40
2019-04-20T01:00:51.065Z,52.50
2019-04-20T01:03:30.532Z,53.20
2019-04-20T01:06:31.734Z,52.50
2019-04-20T01:12:04.059Z,51.90
2019-04-20T01:14:51.388Z,52.60
2019-04-20T01:17:26.887Z,53.90
2019-04-20T01:20:07.734Z,54.10
2019-04-20T01:22:56.076Z,54.20
2019-04-20T01:25:37.863Z,53.10
2019-04-20T01:28:31.078Z,52.00
2019-04-20T01:31:09.801Z,52.30
2019-04-20T01:33:51.924Z,51.00
2019-04-20T01:36:40.605Z,51.30
2019-04-20T01:39:17.250Z,52.40
2019-04-20T01:41:49.579Z,53.10
2019-04-20T01:44:36.299Z,53.30
2019-04-20T01:47:13.400Z,53.50
2019-04-20T01:50:01.752Z,52.40
2019-04-20T01:52:50.381Z,51.40
2019-04-20T01:55:35.833Z,52.00
2019-04-20T01:58:27.429Z,51.70
2019-04-20T02:01:13.744Z,51.60
2019-04-20T02:07:02.050Z,52.10
2019-04-20T02:09:48.523Z,51.40
2019-04-20T02:12:29.060Z,51.40
2019-04-20T02:15:17.214Z,51.30
2019-04-20T02:18:03.134Z,51.20
2019-04-20T02:20:51.471Z,52.30
2019-04-20T02:23:29.408Z,51.80
2019-04-20T02:25:58.731Z,52.60
2019-04-20T02:29:07.976Z,53.00
2019-04-20T02:32:06.686Z,51.70
2019-04-20T02:34:57.751Z,51.80
2019-04-20T02:40:30.995Z,50.30
2019-04-20T02:43:32.912Z,51.00
2019-04-20T02:45:44.257Z,49.80
2019-04-20T02:48:30.160Z,50.30
2019-04-20T02:51:13.347Z,51.90
2019-04-20T02:54:15.093Z,51.10
2019-04-20T02:59:47.531Z,49.10
2019-04-20T03:01:51.748Z,49.10
2019-04-20T03:04:31.086Z,48.40
2019-04-20T03:07:15.615Z,48.50
2019-04-20T03:10:03.938Z,49.10
2019-04-20T03:12:44.941Z,49.20
2019-04-20T03:15:32.775Z,49.00
2019-04-20T03:18:17.744Z,49.50
2019-04-20T03:20:53.081Z,50.90
2019-04-20T03:23:46.227Z,51.60
2019-04-20T03:29:47.376Z,48.60
2019-04-20T03:35:35.572Z,50.00
2019-04-20T03:38:14.456Z,49.70
2019-04-20T03:40:48.373Z,49.00
2019-04-20T03:43:20.177Z,48.90
2019-04-20T03:46:07.772Z,49.10
2019-04-20T03:48:59.390Z,48.40
2019-04-20T03:51:47.080Z,47.40
2019-04-20T03:54:43.431Z,46.10
2019-04-20T03:57:40.904Z,46.30
2019-04-20T04:00:42.479Z,47.50
2019-04-20T04:06:23.489Z,48.20
2019-04-20T04:09:05.139Z,47.90
2019-04-20T04:11:51.349Z,47.00
2019-04-20T04:14:19.731Z,47.20
2019-04-20T04:17:02.605Z,46.90
2019-04-20T04:19:51.132Z,46.70
2019-04-20T04:22:45.799Z,48.10
2019-04-20T04:25:21.981Z,48.20
2019-04-20T04:28:03.894Z,48.30
2019-04-20T04:30:27.944Z,48.50
2019-04-20T04:33:37.869Z,48.20
2019-04-20T04:35:26.746Z,47.70
2019-04-20T04:38:06.923Z,48.90
2019-04-20T04:40:40.934Z,49.10
2019-04-20T04:43:10.253Z,49.80
2019-04-20T04:45:23.611Z,50.50
2019-04-20T04:47:49.821Z,50.20
2019-04-20T04:50:24.542Z,51.10
2019-04-20T04:52:59.676Z,50.80
2019-04-20T04:55:32.761Z,51.00
2019-04-20T04:57:51.638Z,49.90
2019-04-20T05:00:25.830Z,49.50
2019-04-20T05:02:55.509Z,48.80
2019-04-20T05:05:50.295Z,49.70
2019-04-20T05:08:10.220Z,50.40
2019-04-20T05:10:33.009Z,50.40
2019-04-20T05:13:02.953Z,50.80
2019-04-20T05:15:46.173Z,51.00
2019-04-20T05:18:27.239Z,52.30
2019-04-20T05:21:01.610Z,51.80
2019-04-20T05:23:34.122Z,52.60
2019-04-20T05:26:25.382Z,53.30
2019-04-20T05:28:52.743Z,53.20
2019-04-20T05:31:13.339Z,52.30
2019-04-20T05:34:11.371Z,53.50
2019-04-20T05:36:37.438Z,53.00
2019-04-20T05:39:11.715Z,53.30
2019-04-20T05:41:33.309Z,51.70
2019-04-20T05:44:04.699Z,52.00
2019-04-20T05:46:36.889Z,50.80
2019-04-20T05:49:18.227Z,51.50
2019-04-20T05:51:45.967Z,52.80
2019-04-20T05:54:13.846Z,52.30
2019-04-20T05:56:47.855Z,51.90
2019-04-20T05:59:11.673Z,53.50
2019-04-20T06:01:53.198Z,51.80
2019-04-20T06:04:18.818Z,50.20
2019-04-20T06:06:49.811Z,51.00
2019-04-20T06:09:22.970Z,48.20
2019-04-20T06:12:04.359Z,48.50
2019-04-20T06:14:39.465Z,49.50
2019-04-20T06:17:20.960Z,47.70
2019-04-20T06:20:02.201Z,47.90
2019-04-20T06:22:35.215Z,49.20
2019-04-20T06:25:23.542Z,46.70
2019-04-20T06:27:41.117Z,46.00
2019-04-20T06:30:08.567Z,47.20
2019-04-20T06:33:24.518Z,48.00
2019-04-20T06:36:05.992Z,48.20
2019-04-20T06:38:36.535Z,45.80
2019-04-20T06:43:12.100Z,45.70
2019-04-20T06:46:01.920Z,43.00
2019-04-20T06:48:29.471Z,43.30
2019-04-20T06:50:50.441Z,43.90
2019-04-20T06:53:47.017Z,45.70
2019-04-20T06:56:27.619Z,44.30
2019-04-20T06:58:53.759Z,42.30
2019-04-20T07:01:23.479Z,43.80
2019-04-20T07:06:48.437Z,42.00
2019-04-20T07:09:04.335Z,43.70
2019-04-20T07:11:30.689Z,43.10
2019-04-20T07:13:48.229Z,45.20
2019-04-20T07:16:40.869Z,41.00
2019-04-20T07:19:12.828Z,41.90
2019-04-20T07:22:01.892Z,46.20
2019-04-20T07:24:25.538Z,40.80
2019-04-20T07:27:03.081Z,41.70
2019-04-20T07:29:34.556Z,41.50
2019-04-20T07:31:55.286Z,39.70
2019-04-20T07:34:33.695Z,39.90
2019-04-20T07:37:27.910Z,36.90
2019-04-20T07:39:40.760Z,40.80
2019-04-20T07:42:08.124Z,39.10
2019-04-20T07:44:44.280Z,39.00
2019-04-20T07:47:13.739Z,38.60
2019-04-20T07:49:43.073Z,36.50
2019-04-20T07:51:51.119Z,38.40
2019-04-20T07:54:46.177Z,36.20
2019-04-20T07:57:10.195Z,39.50
2019-04-20T07:59:31.493Z,37.70
2019-04-20T08:02:32.414Z,35.80
2019-04-20T08:04:59.446Z,35.90
2019-04-20T08:07:23.694Z,37.00
2019-04-20T08:09:55.573Z,37.80
2019-04-20T08:12:51.699Z,34.30
2019-04-20T08:15:21.858Z,34.40
2019-04-20T08:17:52.822Z,36.60
2019-04-20T08:20:18.862Z,35.80
2019-04-20T08:22:47.926Z,35.80
2019-04-20T08:25:08.362Z,36.60
2019-04-20T08:27:48.697Z,37.10
2019-04-20T08:30:46.741Z,36.90
2019-04-20T08:33:18.010Z,35.20
2019-04-20T08:35:59.639Z,34.70
2019-04-20T08:40:53.956Z,35.40
2019-04-20T08:46:03.443Z,36.10
2019-04-20T08:48:30.522Z,34.10
2019-04-20T08:51:02.575Z,31.90
2019-04-20T08:53:30.818Z,32.80
2019-04-20T08:55:53.894Z,35.70
2019-04-20T08:58:11.997Z,33.50
2019-04-20T09:00:48.509Z,33.60
2019-04-20T09:03:20.177Z,33.90
2019-04-20T09:05:52.502Z,34.70
2019-04-20T09:08:21.277Z,36.30
2019-04-20T09:11:00.237Z,33.80
2019-04-20T09:13:25.973Z,34.60
2019-04-20T09:15:47.039Z,32.60
2019-04-20T09:18:31.219Z,33.90
2019-04-20T09:21:01.468Z,33.70
2019-04-20T09:23:42.410Z,32.80
2019-04-20T09:26:16.101Z,33.70
2019-04-20T09:28:48.010Z,33.20
2019-04-20T09:31:25.802Z,32.90
2019-04-20T09:34:13.327Z,33.20
2019-04-20T09:36:44.616Z,34.40
2019-04-20T09:39:32.683Z,36.30
2019-04-20T09:42:03.591Z,32.30
2019-04-20T09:44:38.699Z,31.90
2019-04-20T09:47:05.568Z,33.30
2019-04-20T09:49:46.047Z,32.20
2019-04-20T09:52:18.502Z,37.00
2019-04-20T09:54:55.171Z,31.60
2019-04-20T09:57:25.549Z,32.20
2019-04-20T09:59:57.736Z,32.80
2019-04-20T10:02:16.830Z,32.70
2019-04-20T10:04:41.794Z,33.40
2019-04-20T10:07:15.973Z,32.10
2019-04-20T10:09:44.984Z,35.30
2019-04-20T10:12:13.509Z,32.30
2019-04-20T10:14:42.781Z,34.50
2019-04-20T10:17:20.381Z,33.00
2019-04-20T10:19:49.439Z,31.90
2019-04-20T10:22:18.515Z,33.50
2019-04-20T10:24:50.111Z,38.00
2019-04-20T10:27:18.788Z,34.40
2019-04-20T10:29:47.802Z,33.20
2019-04-20T10:32:19.602Z,33.90
2019-04-20T10:34:48.779Z,32.90
2019-04-20T10:37:21.752Z,32.60
2019-04-20T10:39:52.440Z,31.80
2019-04-20T10:42:21.509Z,35.10
2019-04-20T10:44:54.926Z,32.40
2019-04-20T10:47:21.317Z,32.80
2019-04-20T10:49:51.153Z,37.10
2019-04-20T10:52:20.262Z,33.30
2019-04-20T10:54:50.372Z,35.10
2019-04-20T10:57:19.586Z,33.10
2019-04-20T10:59:49.836Z,32.00
2019-04-20T11:02:19.478Z,32.10
2019-04-20T11:04:48.765Z,32.40
2019-04-20T11:07:19.109Z,32.50
2019-04-20T11:10:00.635Z,31.10
2019-04-20T11:12:20.097Z,31.30
2019-04-20T11:14:50.244Z,31.90
2019-04-20T11:17:20.453Z,35.00
2019-04-20T11:19:49.597Z,33.10
2019-04-20T11:22:19.998Z,32.90
2019-04-20T11:24:50.261Z,31.40
2019-04-20T11:27:20.407Z,32.90
2019-04-20T11:29:49.869Z,34.60
2019-04-20T11:32:20.201Z,31.60
2019-04-20T11:34:49.326Z,31.30
2019-04-20T11:37:19.338Z,31.40
2019-04-20T11:39:48.501Z,31.10
2019-04-20T11:42:17.598Z,30.40
2019-04-20T11:44:46.834Z,32.10
2019-04-20T11:47:16.788Z,30.90
2019-04-20T11:49:46.005Z,30.80
2019-04-20T11:52:19.398Z,30.90
2019-04-20T11:54:46.403Z,33.60
2019-04-20T11:57:15.505Z,33.40
2019-04-20T11:59:45.338Z,31.40
2019-04-20T12:02:35.468Z,32.10
2019-04-20T12:05:17.963Z,34.40
2019-04-20T12:07:55.274Z,31.00
2019-04-20T12:10:25.972Z,29.90
2019-04-20T12:12:55.791Z,34.10
2019-04-20T12:15:26.486Z,30.80
2019-04-20T12:17:55.715Z,29.50
2019-04-20T12:20:25.077Z,31.40
2019-04-20T12:22:54.591Z,31.80
2019-04-20T12:25:23.858Z,31.70
2019-04-20T12:27:57.032Z,33.40
2019-04-20T12:30:24.009Z,33.50
2019-04-20T12:32:57.688Z,31.70
2019-04-20T12:35:24.469Z,31.40
2019-04-20T12:37:54.664Z,30.80
2019-04-20T12:40:25.895Z,31.10
2019-04-20T12:42:55.087Z,30.30
2019-04-20T12:45:25.835Z,30.30
2019-04-20T12:47:55.543Z,31.30
2019-04-20T12:50:25.685Z,30.40
2019-04-20T12:52:54.866Z,29.10
2019-04-20T12:55:23.938Z,29.60
2019-04-20T12:57:54.414Z,28.60
2019-04-20T13:00:29.748Z,30.80
2019-04-20T13:02:59.135Z,28.90
2019-04-20T13:05:29.662Z,28.60
2019-04-20T13:08:00.821Z,28.90
2019-04-20T13:10:29.639Z,29.20
2019-04-20T13:13:14.481Z,30.80
2019-04-20T13:16:02.663Z,29.00
2019-04-20T13:18:41.333Z,29.30
2019-04-20T13:21:11.186Z,30.80
2019-04-20T13:23:40.599Z,32.60
2019-04-20T13:26:11.874Z,35.50
2019-04-20T13:28:41.210Z,29.10
2019-04-20T13:31:11.628Z,31.00
2019-04-20T13:33:41.192Z,30.20
2019-04-20T13:36:10.477Z,30.10
2019-04-20T13:38:40.397Z,32.20
2019-04-20T13:41:09.552Z,30.00
2019-04-20T13:43:39.747Z,28.40
2019-04-20T13:46:09.155Z,31.10
2019-04-20T13:48:39.243Z,34.20
2019-04-20T13:51:09.818Z,31.30
2019-04-20T13:53:39.320Z,29.50
2019-04-20T13:56:09.952Z,30.00
2019-04-20T13:58:58.091Z,30.60
2019-04-20T14:01:50.549Z,29.60
2019-04-20T14:04:23.122Z,29.00
2019-04-20T14:06:53.339Z,29.10
2019-04-20T14:09:23.513Z,31.40
2019-04-20T14:11:53.668Z,29.70
2019-04-20T14:14:23.446Z,28.50
2019-04-20T14:16:52.925Z,28.30
2019-04-20T14:19:23.191Z,29.20
2019-04-20T14:22:01.970Z,30.30
2019-04-20T14:24:30.840Z,27.70
2019-04-20T14:27:01.083Z,27.90
2019-04-20T14:29:30.633Z,29.20
2019-04-20T14:32:01.555Z,26.60
2019-04-20T14:34:31.115Z,31.90
2019-04-20T14:37:00.597Z,28.90
2019-04-20T14:39:30.238Z,30.10
2019-04-20T14:42:00.376Z,27.40
2019-04-20T14:44:29.957Z,27.00
2019-04-20T14:47:00.091Z,26.80
2019-04-20T14:49:30.526Z,28.40
2019-04-20T14:52:01.136Z,27.80
2019-04-20T14:54:31.709Z,26.20
2019-04-20T14:57:01.430Z,24.50
2019-04-20T14:59:37.796Z,26.60
2019-04-20T15:02:10.533Z,26.00
2019-04-20T15:04:41.167Z,24.70
2019-04-20T15:07:10.851Z,25.20
2019-04-20T15:09:40.639Z,25.00
2019-04-20T15:12:10.883Z,24.60
2019-04-20T15:14:40.820Z,24.30
2019-04-20T15:17:12.244Z,24.20
2019-04-20T15:19:57.243Z,25.40
2019-04-20T15:22:32.166Z,25.80
2019-04-20T15:25:01.633Z,24.10
2019-04-20T15:27:31.215Z,24.40
2019-04-20T15:30:00.408Z,23.90
2019-04-20T15:32:29.537Z,24.90
2019-04-20T15:34:58.585Z,25.80
2019-04-20T15:37:28.848Z,28.70
2019-04-20T15:39:59.062Z,27.20
2019-04-20T15:42:29.495Z,31.10
2019-04-20T15:44:58.641Z,31.70
2019-04-20T15:47:27.974Z,28.70
2019-04-20T15:49:58.097Z,33.40
2019-04-20T15:52:33.609Z,30.60
2019-04-20T15:55:01.891Z,33.20
2019-04-20T15:57:30.388Z,32.60
2019-04-20T16:00:00.631Z,31.90
2019-04-20T16:02:49.479Z,31.60
2019-04-20T16:05:47.260Z,31.60
2019-04-20T16:08:28.205Z,30.80
2019-04-20T16:10:57.441Z,29.40
2019-04-20T16:13:35.075Z,30.50
2019-04-20T16:15:58.082Z,32.70
2019-04-20T16:18:27.350Z,32.30
2019-04-20T16:21:04.946Z,32.70
2019-04-20T16:23:32.991Z,35.20
2019-04-20T16:26:11.506Z,32.30
2019-04-20T16:28:41.688Z,31.70
2019-04-20T16:31:13.536Z,33.10
2019-04-20T16:33:42.206Z,33.30
2019-04-20T16:36:12.336Z,32.60
2019-04-20T16:38:41.950Z,32.50
2019-04-20T16:41:12.235Z,33.60
2019-04-20T16:43:44.648Z,32.40
2019-04-20T16:46:13.144Z,32.80
2019-04-20T16:48:42.263Z,34.60
2019-04-20T16:51:11.602Z,34.20
2019-04-20T16:53:43.392Z,34.10
2019-04-20T16:56:13.660Z,36.50
2019-04-20T16:58:44.109Z,36.30
2019-04-20T17:01:13.709Z,37.50
2019-04-20T17:03:51.795Z,35.80
2019-04-20T17:06:14.269Z,35.70
2019-04-20T17:08:44.790Z,36.60
2019-04-20T17:11:14.292Z,37.80
2019-04-20T17:13:49.450Z,36.30
2019-04-20T17:16:17.560Z,37.40
2019-04-20T17:18:49.975Z,36.80
2019-04-20T17:21:23.508Z,36.90
2019-04-20T17:23:51.206Z,37.40
2019-04-20T17:26:32.454Z,36.60
2019-04-20T17:29:15.927Z,36.60
2019-04-20T17:32:03.255Z,36.90
2019-04-20T17:34:48.213Z,36.40
2019-04-20T17:37:04.547Z,35.60
2019-04-20T17:39:46.728Z,35.80
2019-04-20T17:42:19.970Z,37.50
2019-04-20T17:44:51.811Z,36.60
2019-04-20T17:47:26.124Z,37.70
2019-04-20T17:49:57.676Z,37.90
2019-04-20T17:52:37.117Z,38.90
2019-04-20T17:54:53.239Z,39.30
2019-04-20T17:57:23.498Z,40.50
2019-04-20T18:00:03.094Z,39.80
2019-04-20T18:03:07.387Z,40.20
2019-04-20T18:05:49.837Z,39.90
2019-04-20T18:08:20.906Z,40.80
2019-04-20T18:10:47.527Z,41.10
2019-04-20T18:13:14.209Z,40.20
2019-04-20T18:15:49.101Z,39.70
2019-04-20T18:18:46.770Z,40.70
2019-04-20T18:21:06.798Z,41.40
2019-04-20T18:23:41.047Z,40.70
2019-04-20T18:26:27.655Z,40.80
2019-04-20T18:28:58.823Z,40.70
2019-04-20T18:31:31.400Z,39.60
2019-04-20T18:34:08.978Z,40.00
2019-04-20T18:36:39.694Z,41.20
2019-04-20T18:39:11.641Z,40.40
2019-04-20T18:41:46.671Z,40.90
2019-04-20T18:44:10.758Z,41.60
2019-04-20T18:47:06.716Z,42.20
2019-04-20T18:49:27.286Z,43.60
2019-04-20T18:51:41.939Z,43.80
2019-04-20T18:54:16.259Z,44.40
2019-04-20T18:56:45.929Z,44.70
2019-04-20T18:59:13.174Z,45.20
2019-04-20T19:01:44.959Z,45.50
2019-04-20T19:04:14.216Z,45.30
2019-04-20T19:06:43.744Z,46.80
2019-04-20T19:09:16.824Z,45.60
2019-04-20T19:11:50.892Z,45.80
2019-04-20T19:14:44.238Z,45.90
2019-04-20T19:17:40.461Z,46.40
2019-04-20T19:20:01.403Z,46.70
2019-04-20T19:22:30.230Z,46.50
2019-04-20T19:25:00.038Z,46.40
2019-04-20T19:27:38.981Z,46.10
2019-04-20T19:30:16.841Z,46.80
2019-04-20T19:32:45.393Z,46.70
2019-04-20T19:35:14.521Z,46.40
2019-04-20T19:37:40.675Z,46.40
2019-04-20T19:40:14.236Z,47.20
2019-04-20T19:42:46.703Z,48.30
2019-04-20T19:45:30.149Z,48.50
2019-04-20T19:47:51.260Z,48.00
2019-04-20T19:53:08.370Z,47.50
2019-04-20T19:55:25.898Z,47.50
2019-04-20T19:57:56.831Z,48.50
2019-04-20T20:00:11.451Z,48.40
2019-04-20T20:02:41.418Z,48.20
2019-04-20T20:05:13.184Z,49.00
2019-04-20T20:07:45.693Z,48.80
2019-04-20T20:10:12.868Z,48.20
2019-04-20T20:12:48.319Z,47.70
2019-04-20T20:15:22.310Z,49.40
2019-04-20T20:18:05.818Z,47.90
2019-04-20T20:20:38.246Z,47.60
2019-04-20T20:22:50.400Z,46.90
2019-04-20T20:25:17.045Z,46.50
2019-04-20T20:27:51.189Z,47.00
2019-04-20T20:30:27.795Z,46.90
2019-04-20T20:33:13.962Z,46.80
2019-04-20T20:35:28.619Z,47.50
2019-04-20T20:37:57.809Z,46.90
2019-04-20T20:40:30.997Z,46.80
2019-04-20T20:43:09.747Z,46.90
2019-04-20T20:45:33.646Z,47.20
2019-04-20T20:48:15.477Z,47.60
2019-04-20T20:50:49.101Z,48.50
2019-04-20T20:53:10.210Z,49.00
2019-04-20T20:55:40.238Z,48.80
2019-04-20T20:58:08.477Z,49.20
2019-04-20T21:00:45.215Z,49.00
2019-04-20T21:03:07.148Z,49.10
2019-04-20T21:05:33.558Z,48.80
2019-04-20T21:08:03.780Z,48.90
2019-04-20T21:10:37.750Z,48.20
2019-04-20T21:13:07.332Z,48.30
2019-04-20T21:15:35.189Z,50.00
2019-04-20T21:18:31.280Z,49.80
2019-04-20T21:20:55.114Z,47.70
2019-04-20T21:23:17.484Z,47.10
2019-04-20T21:25:45.789Z,48.20
2019-04-20T21:28:12.990Z,48.20
2019-04-20T21:30:45.166Z,48.60
2019-04-20T21:33:13.595Z,49.50
2019-04-20T21:35:48.326Z,48.50
2019-04-20T21:38:16.592Z,48.70
2019-04-20T21:40:49.291Z,49.20
2019-04-20T21:43:16.282Z,48.50
2019-04-20T21:45:53.409Z,46.90
2019-04-20T21:48:38.017Z,47.30
2019-04-20T21:51:07.071Z,48.00
2019-04-20T21:53:24.969Z,48.20
2019-04-20T21:55:50.228Z,49.50
2019-04-20T21:58:25.849Z,48.90
2019-04-20T22:01:09.228Z,47.60
2019-04-20T22:03:27.460Z,49.10
2019-04-20T22:06:06.582Z,48.80
2019-04-20T22:08:39.424Z,48.70
2019-04-20T22:11:08.149Z,49.30
2019-04-20T22:13:40.081Z,48.70
2019-04-20T22:16:12.071Z,46.40
2019-04-20T22:18:48.213Z,47.30
2019-04-20T22:21:21.020Z,46.90
2019-04-20T22:23:54.923Z,47.10
2019-04-20T22:26:24.441Z,47.80
2019-04-20T22:28:42.454Z,46.90
2019-04-20T22:31:11.950Z,47.80
2019-04-20T22:33:43.272Z,47.10
2019-04-20T22:36:13.164Z,47.20
2019-04-20T22:39:07.259Z,47.50
2019-04-20T22:41:40.721Z,47.70
2019-04-20T22:44:16.505Z,47.30
2019-04-20T22:46:42.732Z,47.50
2019-04-20T22:49:28.134Z,47.40
2019-04-20T22:51:54.446Z,47.90
2019-04-20T22:54:27.999Z,48.30
2019-04-20T22:56:56.220Z,48.30
2019-04-20T22:59:20.331Z,46.40
2019-04-20T23:01:51.485Z,46.30
2019-04-20T23:04:17.011Z,47.20
2019-04-20T23:06:49.988Z,46.30
2019-04-20T23:09:17.507Z,46.60
2019-04-20T23:11:47.681Z,47.20
2019-04-20T23:14:16.736Z,46.20
2019-04-20T23:16:51.719Z,44.60
2019-04-20T23:19:30.017Z,42.50
2019-04-20T23:21:55.781Z,42.70
2019-04-20T23:24:18.849Z,43.20
2019-04-20T23:26:49.425Z,42.90
2019-04-20T23:29:22.627Z,45.70
2019-04-20T23:31:56.910Z,41.80
2019-04-20T23:34:25.553Z,41.60
2019-04-20T23:36:52.515Z,42.80
2019-04-20T23:39:23.371Z,39.70
2019-04-20T23:41:57.091Z,39.10
2019-04-20T23:44:57.810Z,38.50
2019-04-20T23:47:34.057Z,38.30
2019-04-20T23:50:19.455Z,38.10
2019-04-20T23:53:02.369Z,38.20
2019-04-20T23:55:11.454Z,38.20
2019-04-20T23:57:39.757Z,37.90
